sensor_id;sensor_type;location;lat;lon;timestamp;P1;durP1;ratioP1;P2;durP2;ratioP2
6987;SDS011;3534;49.960;8.018;2022-12-18T00:01:57;44.07;;;18.73;;
6987;SDS011;3534;49.960;8.018;2022-12-18T00:04:25;47.43;;;19.70;;
6987;SDS011;3534;49.960;8.018;2022-12-18T00:06:53;41.93;;;19.07;;
6987;SDS011;3534;49.960;8.018;2022-12-18T00:09:20;50.93;;;19.03;;
6987;SDS011;3534;49.960;8.018;2022-12-18T00:11:47;42.83;;;18.20;;
6987;SDS011;3534;49.960;8.018;2022-12-18T00:14:14;45.10;;;19.63;;
6987;SDS011;3534;49.960;8.018;2022-12-18T00:16:42;49.93;;;20.10;;
6987;SDS011;3534;49.960;8.018;2022-12-18T00:19:10;44.57;;;20.83;;
6987;SDS011;3534;49.960;8.018;2022-12-18T00:21:38;36.00;;;16.80;;
6987;SDS011;3534;49.960;8.018;2022-12-18T00:24:07;47.53;;;19.40;;
6987;SDS011;3534;49.960;8.018;2022-12-18T00:26:34;42.43;;;18.93;;
6987;SDS011;3534;49.960;8.018;2022-12-18T00:29:03;38.37;;;18.00;;
6987;SDS011;3534;49.960;8.018;2022-12-18T00:31:31;46.00;;;18.27;;
6987;SDS011;3534;49.960;8.018;2022-12-18T00:33:58;44.13;;;18.63;;
6987;SDS011;3534;49.960;8.018;2022-12-18T00:36:26;46.07;;;20.70;;
6987;SDS011;3534;49.960;8.018;2022-12-18T00:38:55;43.07;;;18.83;;
6987;SDS011;3534;49.960;8.018;2022-12-18T00:41:24;46.00;;;19.10;;
6987;SDS011;3534;49.960;8.018;2022-12-18T00:44:10;49.33;;;19.63;;
6987;SDS011;3534;49.960;8.018;2022-12-18T00:46:37;52.13;;;21.27;;
6987;SDS011;3534;49.960;8.018;2022-12-18T00:49:04;39.23;;;18.30;;
6987;SDS011;3534;49.960;8.018;2022-12-18T00:51:31;46.37;;;19.40;;
6987;SDS011;3534;49.960;8.018;2022-12-18T00:53:58;42.20;;;18.17;;
6987;SDS011;3534;49.960;8.018;2022-12-18T00:56:26;48.53;;;18.77;;
6987;SDS011;3534;49.960;8.018;2022-12-18T00:58:53;40.30;;;18.80;;
6987;SDS011;3534;49.960;8.018;2022-12-18T01:01:19;48.27;;;19.23;;
6987;SDS011;3534;49.960;8.018;2022-12-18T01:03:46;47.37;;;19.37;;
6987;SDS011;3534;49.960;8.018;2022-12-18T01:06:13;42.93;;;18.97;;
6987;SDS011;3534;49.960;8.018;2022-12-18T01:08:41;43.57;;;19.30;;
6987;SDS011;3534;49.960;8.018;2022-12-18T01:11:09;50.43;;;20.63;;
6987;SDS011;3534;49.960;8.018;2022-12-18T01:13:38;54.30;;;22.37;;
6987;SDS011;3534;49.960;8.018;2022-12-18T01:16:05;46.10;;;19.47;;
6987;SDS011;3534;49.960;8.018;2022-12-18T01:18:31;42.07;;;18.80;;
6987;SDS011;3534;49.960;8.018;2022-12-18T01:20:58;48.40;;;20.50;;
6987;SDS011;3534;49.960;8.018;2022-12-18T01:23:26;55.97;;;20.40;;
6987;SDS011;3534;49.960;8.018;2022-12-18T01:25:53;52.93;;;20.90;;
6987;SDS011;3534;49.960;8.018;2022-12-18T01:28:19;49.73;;;20.60;;
6987;SDS011;3534;49.960;8.018;2022-12-18T01:30:47;43.80;;;19.70;;
6987;SDS011;3534;49.960;8.018;2022-12-18T01:33:14;46.00;;;20.40;;
6987;SDS011;3534;49.960;8.018;2022-12-18T01:35:41;50.33;;;19.00;;
6987;SDS011;3534;49.960;8.018;2022-12-18T01:38:08;50.00;;;20.10;;
6987;SDS011;3534;49.960;8.018;2022-12-18T01:40:35;47.73;;;20.10;;
6987;SDS011;3534;49.960;8.018;2022-12-18T01:43:02;51.23;;;20.40;;
6987;SDS011;3534;49.960;8.018;2022-12-18T01:45:29;46.20;;;19.20;;
6987;SDS011;3534;49.960;8.018;2022-12-18T01:47:59;50.77;;;21.20;;
6987;SDS011;3534;49.960;8.018;2022-12-18T01:50:30;44.97;;;19.33;;
6987;SDS011;3534;49.960;8.018;2022-12-18T01:53:00;53.77;;;21.77;;
6987;SDS011;3534;49.960;8.018;2022-12-18T01:55:31;44.47;;;20.60;;
6987;SDS011;3534;49.960;8.018;2022-12-18T01:58:04;47.83;;;21.40;;
6987;SDS011;3534;49.960;8.018;2022-12-18T02:00:31;47.03;;;20.53;;
6987;SDS011;3534;49.960;8.018;2022-12-18T02:02:59;43.17;;;19.67;;
6987;SDS011;3534;49.960;8.018;2022-12-18T02:05:28;45.77;;;18.97;;
6987;SDS011;3534;49.960;8.018;2022-12-18T02:08:05;45.93;;;21.90;;
6987;SDS011;3534;49.960;8.018;2022-12-18T02:10:38;62.20;;;21.70;;
6987;SDS011;3534;49.960;8.018;2022-12-18T02:13:12;55.43;;;21.70;;
6987;SDS011;3534;49.960;8.018;2022-12-18T02:15:43;49.10;;;21.63;;
6987;SDS011;3534;49.960;8.018;2022-12-18T02:18:19;51.20;;;20.10;;
6987;SDS011;3534;49.960;8.018;2022-12-18T02:20:52;41.37;;;18.57;;
6987;SDS011;3534;49.960;8.018;2022-12-18T02:23:28;42.80;;;18.17;;
6987;SDS011;3534;49.960;8.018;2022-12-18T02:26:12;46.67;;;19.17;;
6987;SDS011;3534;49.960;8.018;2022-12-18T02:28:43;40.83;;;18.70;;
6987;SDS011;3534;49.960;8.018;2022-12-18T02:31:13;34.60;;;17.43;;
6987;SDS011;3534;49.960;8.018;2022-12-18T02:33:43;41.30;;;18.20;;
6987;SDS011;3534;49.960;8.018;2022-12-18T02:36:11;46.30;;;18.60;;
6987;SDS011;3534;49.960;8.018;2022-12-18T02:38:39;41.60;;;17.90;;
6987;SDS011;3534;49.960;8.018;2022-12-18T02:41:08;41.90;;;18.20;;
6987;SDS011;3534;49.960;8.018;2022-12-18T02:43:36;42.57;;;16.17;;
6987;SDS011;3534;49.960;8.018;2022-12-18T02:48:51;44.97;;;17.60;;
6987;SDS011;3534;49.960;8.018;2022-12-18T02:51:23;38.47;;;16.97;;
6987;SDS011;3534;49.960;8.018;2022-12-18T02:53:56;43.87;;;18.73;;
6987;SDS011;3534;49.960;8.018;2022-12-18T02:56:31;44.53;;;19.60;;
6987;SDS011;3534;49.960;8.018;2022-12-18T02:59:06;44.77;;;15.93;;
6987;SDS011;3534;49.960;8.018;2022-12-18T03:01:38;37.13;;;16.33;;
6987;SDS011;3534;49.960;8.018;2022-12-18T03:04:09;40.03;;;17.00;;
6987;SDS011;3534;49.960;8.018;2022-12-18T03:06:43;40.73;;;17.80;;
6987;SDS011;3534;49.960;8.018;2022-12-18T03:09:14;44.50;;;17.77;;
6987;SDS011;3534;49.960;8.018;2022-12-18T03:11:46;44.87;;;17.40;;
6987;SDS011;3534;49.960;8.018;2022-12-18T03:14:38;45.07;;;17.87;;
6987;SDS011;3534;49.960;8.018;2022-12-18T03:17:09;41.27;;;16.60;;
6987;SDS011;3534;49.960;8.018;2022-12-18T03:19:38;46.23;;;18.33;;
6987;SDS011;3534;49.960;8.018;2022-12-18T03:22:07;39.33;;;16.93;;
6987;SDS011;3534;49.960;8.018;2022-12-18T03:24:35;49.83;;;17.40;;
6987;SDS011;3534;49.960;8.018;2022-12-18T03:27:05;37.97;;;15.60;;
6987;SDS011;3534;49.960;8.018;2022-12-18T03:29:36;38.30;;;17.03;;
6987;SDS011;3534;49.960;8.018;2022-12-18T03:32:10;39.20;;;15.13;;
6987;SDS011;3534;49.960;8.018;2022-12-18T03:34:41;39.63;;;15.47;;
6987;SDS011;3534;49.960;8.018;2022-12-18T03:37:10;33.33;;;15.53;;
6987;SDS011;3534;49.960;8.018;2022-12-18T03:39:37;35.83;;;15.40;;
6987;SDS011;3534;49.960;8.018;2022-12-18T03:42:04;35.93;;;16.37;;
6987;SDS011;3534;49.960;8.018;2022-12-18T03:44:39;44.40;;;18.30;;
6987;SDS011;3534;49.960;8.018;2022-12-18T03:47:10;49.47;;;17.83;;
6987;SDS011;3534;49.960;8.018;2022-12-18T03:49:43;46.20;;;17.93;;
6987;SDS011;3534;49.960;8.018;2022-12-18T03:52:15;41.60;;;17.53;;
6987;SDS011;3534;49.960;8.018;2022-12-18T03:54:44;49.20;;;17.53;;
6987;SDS011;3534;49.960;8.018;2022-12-18T03:57:13;41.00;;;16.53;;
6987;SDS011;3534;49.960;8.018;2022-12-18T03:59:44;44.50;;;17.97;;
6987;SDS011;3534;49.960;8.018;2022-12-18T04:02:13;40.13;;;16.10;;
6987;SDS011;3534;49.960;8.018;2022-12-18T04:04:42;43.70;;;16.43;;
6987;SDS011;3534;49.960;8.018;2022-12-18T04:07:10;39.90;;;15.73;;
6987;SDS011;3534;49.960;8.018;2022-12-18T04:09:39;47.57;;;17.43;;
6987;SDS011;3534;49.960;8.018;2022-12-18T04:12:08;40.10;;;15.60;;
6987;SDS011;3534;49.960;8.018;2022-12-18T04:14:34;44.53;;;16.87;;
6987;SDS011;3534;49.960;8.018;2022-12-18T04:17:03;34.87;;;15.20;;
6987;SDS011;3534;49.960;8.018;2022-12-18T04:19:30;45.27;;;17.10;;
6987;SDS011;3534;49.960;8.018;2022-12-18T04:21:56;37.10;;;15.70;;
6987;SDS011;3534;49.960;8.018;2022-12-18T04:24:23;36.87;;;15.13;;
6987;SDS011;3534;49.960;8.018;2022-12-18T04:26:50;33.43;;;15.37;;
6987;SDS011;3534;49.960;8.018;2022-12-18T04:29:17;35.13;;;15.30;;
6987;SDS011;3534;49.960;8.018;2022-12-18T04:31:44;37.87;;;15.00;;
6987;SDS011;3534;49.960;8.018;2022-12-18T04:34:12;39.30;;;16.97;;
6987;SDS011;3534;49.960;8.018;2022-12-18T04:36:39;41.97;;;17.53;;
6987;SDS011;3534;49.960;8.018;2022-12-18T04:39:05;37.07;;;16.30;;
6987;SDS011;3534;49.960;8.018;2022-12-18T04:41:32;38.83;;;16.43;;
6987;SDS011;3534;49.960;8.018;2022-12-18T04:43:59;39.40;;;16.53;;
6987;SDS011;3534;49.960;8.018;2022-12-18T04:46:25;37.27;;;15.63;;
6987;SDS011;3534;49.960;8.018;2022-12-18T04:48:52;34.70;;;15.17;;
6987;SDS011;3534;49.960;8.018;2022-12-18T04:51:20;37.97;;;15.77;;
6987;SDS011;3534;49.960;8.018;2022-12-18T04:53:47;29.23;;;14.07;;
6987;SDS011;3534;49.960;8.018;2022-12-18T04:56:14;30.97;;;14.07;;
6987;SDS011;3534;49.960;8.018;2022-12-18T04:58:41;34.00;;;12.93;;
6987;SDS011;3534;49.960;8.018;2022-12-18T05:01:12;36.97;;;16.00;;
6987;SDS011;3534;49.960;8.018;2022-12-18T05:03:40;38.43;;;15.90;;
6987;SDS011;3534;49.960;8.018;2022-12-18T05:06:07;36.20;;;16.70;;
6987;SDS011;3534;49.960;8.018;2022-12-18T05:08:35;32.87;;;14.73;;
6987;SDS011;3534;49.960;8.018;2022-12-18T05:11:02;47.13;;;16.57;;
6987;SDS011;3534;49.960;8.018;2022-12-18T05:13:31;39.73;;;15.80;;
6987;SDS011;3534;49.960;8.018;2022-12-18T05:15:58;36.63;;;17.57;;
6987;SDS011;3534;49.960;8.018;2022-12-18T05:18:26;37.13;;;16.60;;
6987;SDS011;3534;49.960;8.018;2022-12-18T05:20:53;51.57;;;18.17;;
6987;SDS011;3534;49.960;8.018;2022-12-18T05:23:21;47.13;;;18.67;;
6987;SDS011;3534;49.960;8.018;2022-12-18T05:25:51;40.63;;;17.73;;
6987;SDS011;3534;49.960;8.018;2022-12-18T05:28:19;46.70;;;17.87;;
6987;SDS011;3534;49.960;8.018;2022-12-18T05:30:47;35.10;;;15.20;;
6987;SDS011;3534;49.960;8.018;2022-12-18T05:33:16;44.73;;;17.67;;
6987;SDS011;3534;49.960;8.018;2022-12-18T05:35:42;38.83;;;17.03;;
6987;SDS011;3534;49.960;8.018;2022-12-18T05:38:09;41.63;;;17.33;;
6987;SDS011;3534;49.960;8.018;2022-12-18T05:40:36;45.83;;;18.03;;
6987;SDS011;3534;49.960;8.018;2022-12-18T05:43:04;45.57;;;17.90;;
6987;SDS011;3534;49.960;8.018;2022-12-18T05:45:31;53.90;;;17.30;;
6987;SDS011;3534;49.960;8.018;2022-12-18T05:47:57;40.60;;;18.20;;
6987;SDS011;3534;49.960;8.018;2022-12-18T05:50:24;45.10;;;17.13;;
6987;SDS011;3534;49.960;8.018;2022-12-18T05:52:50;37.80;;;15.30;;
6987;SDS011;3534;49.960;8.018;2022-12-18T05:55:17;41.73;;;17.23;;
6987;SDS011;3534;49.960;8.018;2022-12-18T05:57:44;40.67;;;17.23;;
6987;SDS011;3534;49.960;8.018;2022-12-18T06:00:13;41.80;;;16.37;;
6987;SDS011;3534;49.960;8.018;2022-12-18T06:02:40;37.80;;;17.70;;
6987;SDS011;3534;49.960;8.018;2022-12-18T06:05:07;35.97;;;15.77;;
6987;SDS011;3534;49.960;8.018;2022-12-18T06:07:34;35.13;;;14.50;;
6987;SDS011;3534;49.960;8.018;2022-12-18T06:10:00;37.10;;;15.80;;
6987;SDS011;3534;49.960;8.018;2022-12-18T06:12:27;32.50;;;14.80;;
6987;SDS011;3534;49.960;8.018;2022-12-18T06:14:54;37.90;;;18.17;;
6987;SDS011;3534;49.960;8.018;2022-12-18T06:17:22;35.07;;;15.20;;
6987;SDS011;3534;49.960;8.018;2022-12-18T06:19:48;33.43;;;14.93;;
6987;SDS011;3534;49.960;8.018;2022-12-18T06:22:15;31.17;;;14.23;;
6987;SDS011;3534;49.960;8.018;2022-12-18T06:24:42;28.67;;;13.93;;
6987;SDS011;3534;49.960;8.018;2022-12-18T06:27:08;32.00;;;13.90;;
6987;SDS011;3534;49.960;8.018;2022-12-18T06:29:36;25.40;;;12.50;;
6987;SDS011;3534;49.960;8.018;2022-12-18T06:32:02;27.37;;;13.00;;
6987;SDS011;3534;49.960;8.018;2022-12-18T06:34:30;28.97;;;13.80;;
6987;SDS011;3534;49.960;8.018;2022-12-18T06:36:57;36.13;;;16.80;;
6987;SDS011;3534;49.960;8.018;2022-12-18T06:39:24;35.83;;;18.70;;
6987;SDS011;3534;49.960;8.018;2022-12-18T06:41:53;35.73;;;17.13;;
6987;SDS011;3534;49.960;8.018;2022-12-18T06:44:19;38.53;;;18.83;;
6987;SDS011;3534;49.960;8.018;2022-12-18T06:46:46;41.60;;;16.60;;
6987;SDS011;3534;49.960;8.018;2022-12-18T06:49:13;36.57;;;16.40;;
6987;SDS011;3534;49.960;8.018;2022-12-18T06:51:42;36.17;;;15.00;;
6987;SDS011;3534;49.960;8.018;2022-12-18T06:54:08;37.87;;;17.00;;
6987;SDS011;3534;49.960;8.018;2022-12-18T06:56:35;32.20;;;14.73;;
6987;SDS011;3534;49.960;8.018;2022-12-18T06:59:02;38.97;;;16.90;;
6987;SDS011;3534;49.960;8.018;2022-12-18T07:01:29;37.57;;;16.00;;
6987;SDS011;3534;49.960;8.018;2022-12-18T07:03:56;40.87;;;15.50;;
6987;SDS011;3534;49.960;8.018;2022-12-18T07:06:23;35.03;;;15.17;;
6987;SDS011;3534;49.960;8.018;2022-12-18T07:08:53;31.40;;;14.13;;
6987;SDS011;3534;49.960;8.018;2022-12-18T07:11:20;45.23;;;18.50;;
6987;SDS011;3534;49.960;8.018;2022-12-18T07:13:47;48.30;;;17.10;;
6987;SDS011;3534;49.960;8.018;2022-12-18T07:16:14;39.00;;;15.90;;
6987;SDS011;3534;49.960;8.018;2022-12-18T07:18:42;37.97;;;17.53;;
6987;SDS011;3534;49.960;8.018;2022-12-18T07:21:10;40.80;;;16.40;;
6987;SDS011;3534;49.960;8.018;2022-12-18T07:23:37;33.97;;;16.30;;
6987;SDS011;3534;49.960;8.018;2022-12-18T07:26:06;39.47;;;17.00;;
6987;SDS011;3534;49.960;8.018;2022-12-18T07:28:34;42.97;;;16.67;;
6987;SDS011;3534;49.960;8.018;2022-12-18T07:31:02;42.87;;;17.70;;
6987;SDS011;3534;49.960;8.018;2022-12-18T07:33:29;42.03;;;17.57;;
6987;SDS011;3534;49.960;8.018;2022-12-18T07:35:55;43.90;;;20.03;;
6987;SDS011;3534;49.960;8.018;2022-12-18T07:38:22;40.83;;;18.27;;
6987;SDS011;3534;49.960;8.018;2022-12-18T07:40:49;41.93;;;18.40;;
6987;SDS011;3534;49.960;8.018;2022-12-18T07:43:17;42.33;;;19.27;;
6987;SDS011;3534;49.960;8.018;2022-12-18T07:45:43;45.40;;;20.20;;
6987;SDS011;3534;49.960;8.018;2022-12-18T07:48:10;42.50;;;20.33;;
6987;SDS011;3534;49.960;8.018;2022-12-18T07:50:37;40.53;;;17.27;;
6987;SDS011;3534;49.960;8.018;2022-12-18T07:53:03;39.20;;;16.70;;
6987;SDS011;3534;49.960;8.018;2022-12-18T07:55:30;54.03;;;18.83;;
6987;SDS011;3534;49.960;8.018;2022-12-18T07:58:00;44.70;;;18.47;;
6987;SDS011;3534;49.960;8.018;2022-12-18T08:00:28;37.40;;;17.07;;
6987;SDS011;3534;49.960;8.018;2022-12-18T08:02:56;44.40;;;16.73;;
6987;SDS011;3534;49.960;8.018;2022-12-18T08:05:23;33.80;;;15.30;;
6987;SDS011;3534;49.960;8.018;2022-12-18T08:07:49;37.87;;;16.00;;
6987;SDS011;3534;49.960;8.018;2022-12-18T08:10:16;43.57;;;18.70;;
6987;SDS011;3534;49.960;8.018;2022-12-18T08:12:43;38.87;;;18.40;;
6987;SDS011;3534;49.960;8.018;2022-12-18T08:15:10;55.10;;;19.73;;
6987;SDS011;3534;49.960;8.018;2022-12-18T08:17:38;51.23;;;21.00;;
6987;SDS011;3534;49.960;8.018;2022-12-18T08:20:05;39.80;;;18.90;;
6987;SDS011;3534;49.960;8.018;2022-12-18T08:22:33;47.00;;;19.97;;
6987;SDS011;3534;49.960;8.018;2022-12-18T08:25:04;65.40;;;25.53;;
6987;SDS011;3534;49.960;8.018;2022-12-18T08:27:32;63.53;;;23.97;;
6987;SDS011;3534;49.960;8.018;2022-12-18T08:29:58;61.80;;;23.07;;
6987;SDS011;3534;49.960;8.018;2022-12-18T08:32:25;55.10;;;20.17;;
6987;SDS011;3534;49.960;8.018;2022-12-18T08:34:54;55.70;;;21.83;;
6987;SDS011;3534;49.960;8.018;2022-12-18T08:37:21;67.23;;;26.27;;
6987;SDS011;3534;49.960;8.018;2022-12-18T08:39:48;55.27;;;21.93;;
6987;SDS011;3534;49.960;8.018;2022-12-18T08:42:14;46.30;;;18.63;;
6987;SDS011;3534;49.960;8.018;2022-12-18T08:44:59;51.77;;;20.90;;
6987;SDS011;3534;49.960;8.018;2022-12-18T08:47:25;47.93;;;20.27;;
6987;SDS011;3534;49.960;8.018;2022-12-18T08:49:52;42.60;;;19.40;;
6987;SDS011;3534;49.960;8.018;2022-12-18T08:52:20;48.20;;;21.17;;
6987;SDS011;3534;49.960;8.018;2022-12-18T08:54:47;34.10;;;17.90;;
6987;SDS011;3534;49.960;8.018;2022-12-18T08:57:13;38.20;;;17.37;;
6987;SDS011;3534;49.960;8.018;2022-12-18T08:59:41;36.57;;;17.17;;
6987;SDS011;3534;49.960;8.018;2022-12-18T09:02:08;38.33;;;16.07;;
6987;SDS011;3534;49.960;8.018;2022-12-18T09:04:36;42.90;;;18.70;;
6987;SDS011;3534;49.960;8.018;2022-12-18T09:07:04;39.93;;;17.67;;
6987;SDS011;3534;49.960;8.018;2022-12-18T09:09:32;42.40;;;19.83;;
6987;SDS011;3534;49.960;8.018;2022-12-18T09:11:59;50.30;;;22.13;;
6987;SDS011;3534;49.960;8.018;2022-12-18T09:14:26;64.97;;;27.77;;
6987;SDS011;3534;49.960;8.018;2022-12-18T09:16:52;52.80;;;23.83;;
6987;SDS011;3534;49.960;8.018;2022-12-18T09:19:19;47.37;;;21.10;;
6987;SDS011;3534;49.960;8.018;2022-12-18T09:21:46;54.10;;;19.47;;
6987;SDS011;3534;49.960;8.018;2022-12-18T09:24:13;37.90;;;18.70;;
6987;SDS011;3534;49.960;8.018;2022-12-18T09:26:42;49.50;;;22.83;;
6987;SDS011;3534;49.960;8.018;2022-12-18T09:29:09;43.73;;;19.10;;
6987;SDS011;3534;49.960;8.018;2022-12-18T09:31:36;51.07;;;20.10;;
6987;SDS011;3534;49.960;8.018;2022-12-18T09:34:04;46.27;;;19.90;;
6987;SDS011;3534;49.960;8.018;2022-12-18T09:36:30;43.90;;;22.23;;
6987;SDS011;3534;49.960;8.018;2022-12-18T09:38:57;56.93;;;22.50;;
6987;SDS011;3534;49.960;8.018;2022-12-18T09:41:35;47.20;;;23.03;;
6987;SDS011;3534;49.960;8.018;2022-12-18T09:44:13;48.20;;;20.43;;
6987;SDS011;3534;49.960;8.018;2022-12-18T09:46:47;43.77;;;20.37;;
6987;SDS011;3534;49.960;8.018;2022-12-18T09:49:18;40.90;;;18.20;;
6987;SDS011;3534;49.960;8.018;2022-12-18T09:51:49;32.27;;;17.03;;
6987;SDS011;3534;49.960;8.018;2022-12-18T09:54:21;36.23;;;17.80;;
6987;SDS011;3534;49.960;8.018;2022-12-18T09:56:53;40.33;;;19.30;;
6987;SDS011;3534;49.960;8.018;2022-12-18T09:59:21;39.50;;;18.43;;
6987;SDS011;3534;49.960;8.018;2022-12-18T10:01:50;41.77;;;21.20;;
6987;SDS011;3534;49.960;8.018;2022-12-18T10:04:17;41.37;;;21.67;;
6987;SDS011;3534;49.960;8.018;2022-12-18T10:06:46;41.90;;;21.80;;
6987;SDS011;3534;49.960;8.018;2022-12-18T10:09:22;44.27;;;20.50;;
6987;SDS011;3534;49.960;8.018;2022-12-18T10:11:57;39.10;;;18.83;;
6987;SDS011;3534;49.960;8.018;2022-12-18T10:14:32;43.77;;;21.57;;
6987;SDS011;3534;49.960;8.018;2022-12-18T10:17:07;43.70;;;21.10;;
6987;SDS011;3534;49.960;8.018;2022-12-18T10:19:44;41.13;;;19.20;;
6987;SDS011;3534;49.960;8.018;2022-12-18T10:22:29;51.13;;;21.30;;
6987;SDS011;3534;49.960;8.018;2022-12-18T10:25:13;49.60;;;22.17;;
6987;SDS011;3534;49.960;8.018;2022-12-18T10:27:46;49.43;;;22.57;;
6987;SDS011;3534;49.960;8.018;2022-12-18T10:30:14;50.93;;;22.00;;
6987;SDS011;3534;49.960;8.018;2022-12-18T10:32:43;53.13;;;24.17;;
6987;SDS011;3534;49.960;8.018;2022-12-18T10:35:12;56.23;;;30.97;;
6987;SDS011;3534;49.960;8.018;2022-12-18T10:38:01;45.20;;;23.80;;
6987;SDS011;3534;49.960;8.018;2022-12-18T10:40:29;49.73;;;23.90;;
6987;SDS011;3534;49.960;8.018;2022-12-18T10:43:10;47.50;;;22.23;;
6987;SDS011;3534;49.960;8.018;2022-12-18T10:45:38;43.77;;;20.03;;
6987;SDS011;3534;49.960;8.018;2022-12-18T10:48:16;43.10;;;21.03;;
6987;SDS011;3534;49.960;8.018;2022-12-18T10:50:46;43.77;;;21.17;;
6987;SDS011;3534;49.960;8.018;2022-12-18T10:53:18;54.53;;;22.57;;
6987;SDS011;3534;49.960;8.018;2022-12-18T10:55:47;48.70;;;22.70;;
6987;SDS011;3534;49.960;8.018;2022-12-18T10:58:22;43.67;;;22.57;;
6987;SDS011;3534;49.960;8.018;2022-12-18T11:01:01;44.70;;;20.93;;
6987;SDS011;3534;49.960;8.018;2022-12-18T11:03:35;51.90;;;23.33;;
6987;SDS011;3534;49.960;8.018;2022-12-18T11:06:07;50.80;;;24.07;;
6987;SDS011;3534;49.960;8.018;2022-12-18T11:08:35;48.27;;;24.63;;
6987;SDS011;3534;49.960;8.018;2022-12-18T11:11:02;45.17;;;24.10;;
6987;SDS011;3534;49.960;8.018;2022-12-18T11:13:35;44.77;;;21.87;;
6987;SDS011;3534;49.960;8.018;2022-12-18T11:16:01;47.57;;;22.53;;
6987;SDS011;3534;49.960;8.018;2022-12-18T11:18:28;41.50;;;21.40;;
6987;SDS011;3534;49.960;8.018;2022-12-18T11:20:58;41.70;;;21.83;;
6987;SDS011;3534;49.960;8.018;2022-12-18T11:23:27;46.13;;;22.53;;
6987;SDS011;3534;49.960;8.018;2022-12-18T11:25:55;44.90;;;22.37;;
6987;SDS011;3534;49.960;8.018;2022-12-18T11:28:35;38.00;;;20.20;;
6987;SDS011;3534;49.960;8.018;2022-12-18T11:34:02;48.73;;;24.60;;
6987;SDS011;3534;49.960;8.018;2022-12-18T11:36:36;43.00;;;20.63;;
6987;SDS011;3534;49.960;8.018;2022-12-18T11:39:09;45.27;;;21.77;;
6987;SDS011;3534;49.960;8.018;2022-12-18T11:41:43;45.90;;;22.33;;
6987;SDS011;3534;49.960;8.018;2022-12-18T11:44:36;50.97;;;24.60;;
6987;SDS011;3534;49.960;8.018;2022-12-18T11:47:09;46.80;;;22.57;;
6987;SDS011;3534;49.960;8.018;2022-12-18T11:49:41;51.70;;;22.30;;
6987;SDS011;3534;49.960;8.018;2022-12-18T11:52:09;54.10;;;24.60;;
6987;SDS011;3534;49.960;8.018;2022-12-18T11:54:41;58.73;;;23.57;;
6987;SDS011;3534;49.960;8.018;2022-12-18T11:57:10;52.20;;;26.53;;
6987;SDS011;3534;49.960;8.018;2022-12-18T11:59:48;54.80;;;25.20;;
6987;SDS011;3534;49.960;8.018;2022-12-18T12:02:35;51.27;;;24.43;;
6987;SDS011;3534;49.960;8.018;2022-12-18T12:05:16;42.63;;;23.00;;
6987;SDS011;3534;49.960;8.018;2022-12-18T12:07:52;45.00;;;24.20;;
6987;SDS011;3534;49.960;8.018;2022-12-18T12:10:29;47.87;;;24.10;;
6987;SDS011;3534;49.960;8.018;2022-12-18T12:13:16;51.90;;;25.27;;
6987;SDS011;3534;49.960;8.018;2022-12-18T12:15:54;50.20;;;24.30;;
6987;SDS011;3534;49.960;8.018;2022-12-18T12:18:33;58.23;;;29.67;;
6987;SDS011;3534;49.960;8.018;2022-12-18T12:21:10;57.37;;;29.30;;
6987;SDS011;3534;49.960;8.018;2022-12-18T12:23:45;48.73;;;24.70;;
6987;SDS011;3534;49.960;8.018;2022-12-18T12:26:17;50.67;;;23.73;;
6987;SDS011;3534;49.960;8.018;2022-12-18T12:28:59;48.07;;;22.43;;
6987;SDS011;3534;49.960;8.018;2022-12-18T12:31:36;43.37;;;23.30;;
6987;SDS011;3534;49.960;8.018;2022-12-18T12:34:19;53.13;;;22.97;;
6987;SDS011;3534;49.960;8.018;2022-12-18T12:36:55;43.57;;;22.87;;
6987;SDS011;3534;49.960;8.018;2022-12-18T12:39:34;43.67;;;23.43;;
6987;SDS011;3534;49.960;8.018;2022-12-18T12:42:03;49.97;;;22.97;;
6987;SDS011;3534;49.960;8.018;2022-12-18T12:44:51;45.73;;;23.10;;
6987;SDS011;3534;49.960;8.018;2022-12-18T12:47:22;43.40;;;24.27;;
6987;SDS011;3534;49.960;8.018;2022-12-18T12:49:54;56.10;;;26.70;;
6987;SDS011;3534;49.960;8.018;2022-12-18T12:52:25;62.57;;;31.07;;
6987;SDS011;3534;49.960;8.018;2022-12-18T12:54:56;50.97;;;26.13;;
6987;SDS011;3534;49.960;8.018;2022-12-18T12:57:27;49.23;;;24.70;;
6987;SDS011;3534;49.960;8.018;2022-12-18T13:00:00;55.20;;;25.40;;
6987;SDS011;3534;49.960;8.018;2022-12-18T13:05:00;44.23;;;23.20;;
6987;SDS011;3534;49.960;8.018;2022-12-18T13:07:35;45.07;;;22.70;;
6987;SDS011;3534;49.960;8.018;2022-12-18T13:10:26;49.30;;;25.83;;
6987;SDS011;3534;49.960;8.018;2022-12-18T13:12:59;40.57;;;22.07;;
6987;SDS011;3534;49.960;8.018;2022-12-18T13:15:33;49.93;;;24.67;;
6987;SDS011;3534;49.960;8.018;2022-12-18T13:18:14;49.33;;;24.43;;
6987;SDS011;3534;49.960;8.018;2022-12-18T13:20:45;44.50;;;23.10;;
6987;SDS011;3534;49.960;8.018;2022-12-18T13:23:26;38.77;;;21.47;;
6987;SDS011;3534;49.960;8.018;2022-12-18T13:28:57;40.80;;;20.90;;
6987;SDS011;3534;49.960;8.018;2022-12-18T13:34:26;47.50;;;21.60;;
6987;SDS011;3534;49.960;8.018;2022-12-18T13:36:57;41.23;;;22.37;;
6987;SDS011;3534;49.960;8.018;2022-12-18T13:43:22;39.60;;;21.33;;
6987;SDS011;3534;49.960;8.018;2022-12-18T13:45:59;45.13;;;23.83;;
6987;SDS011;3534;49.960;8.018;2022-12-18T13:48:48;53.07;;;25.07;;
6987;SDS011;3534;49.960;8.018;2022-12-18T13:51:27;49.53;;;23.97;;
6987;SDS011;3534;49.960;8.018;2022-12-18T13:53:58;56.27;;;25.43;;
6987;SDS011;3534;49.960;8.018;2022-12-18T13:56:28;47.53;;;23.50;;
6987;SDS011;3534;49.960;8.018;2022-12-18T14:01:46;62.40;;;26.90;;
6987;SDS011;3534;49.960;8.018;2022-12-18T14:04:19;45.20;;;24.77;;
6987;SDS011;3534;49.960;8.018;2022-12-18T14:06:49;45.47;;;22.63;;
6987;SDS011;3534;49.960;8.018;2022-12-18T14:09:20;50.77;;;26.80;;
6987;SDS011;3534;49.960;8.018;2022-12-18T14:11:51;47.30;;;24.63;;
6987;SDS011;3534;49.960;8.018;2022-12-18T14:14:40;46.97;;;24.80;;
6987;SDS011;3534;49.960;8.018;2022-12-18T14:17:08;50.10;;;23.67;;
6987;SDS011;3534;49.960;8.018;2022-12-18T14:19:36;48.53;;;23.40;;
6987;SDS011;3534;49.960;8.018;2022-12-18T14:22:03;49.27;;;24.40;;
6987;SDS011;3534;49.960;8.018;2022-12-18T14:24:31;48.70;;;24.93;;
6987;SDS011;3534;49.960;8.018;2022-12-18T14:26:58;45.23;;;23.30;;
6987;SDS011;3534;49.960;8.018;2022-12-18T14:29:45;55.57;;;23.70;;
6987;SDS011;3534;49.960;8.018;2022-12-18T14:32:13;48.00;;;25.23;;
6987;SDS011;3534;49.960;8.018;2022-12-18T14:34:42;50.67;;;25.87;;
6987;SDS011;3534;49.960;8.018;2022-12-18T14:37:09;50.40;;;24.30;;
6987;SDS011;3534;49.960;8.018;2022-12-18T14:39:38;49.47;;;27.17;;
6987;SDS011;3534;49.960;8.018;2022-12-18T14:42:05;49.10;;;24.20;;
6987;SDS011;3534;49.960;8.018;2022-12-18T14:44:31;43.40;;;22.57;;
6987;SDS011;3534;49.960;8.018;2022-12-18T14:46:58;45.43;;;23.00;;
6987;SDS011;3534;49.960;8.018;2022-12-18T14:49:26;52.30;;;25.80;;
6987;SDS011;3534;49.960;8.018;2022-12-18T14:51:57;45.47;;;23.30;;
6987;SDS011;3534;49.960;8.018;2022-12-18T14:54:26;46.07;;;24.07;;
6987;SDS011;3534;49.960;8.018;2022-12-18T14:56:56;49.10;;;25.13;;
6987;SDS011;3534;49.960;8.018;2022-12-18T14:59:27;47.10;;;24.40;;
6987;SDS011;3534;49.960;8.018;2022-12-18T15:01:57;49.77;;;24.87;;
6987;SDS011;3534;49.960;8.018;2022-12-18T15:04:27;39.93;;;21.37;;
6987;SDS011;3534;49.960;8.018;2022-12-18T15:07:03;44.03;;;23.27;;
6987;SDS011;3534;49.960;8.018;2022-12-18T15:09:39;49.00;;;25.47;;
6987;SDS011;3534;49.960;8.018;2022-12-18T15:12:16;55.87;;;25.10;;
6987;SDS011;3534;49.960;8.018;2022-12-18T15:14:50;51.57;;;22.60;;
6987;SDS011;3534;49.960;8.018;2022-12-18T15:17:17;46.70;;;22.50;;
6987;SDS011;3534;49.960;8.018;2022-12-18T15:19:46;55.10;;;23.67;;
6987;SDS011;3534;49.960;8.018;2022-12-18T15:22:20;59.97;;;29.10;;
6987;SDS011;3534;49.960;8.018;2022-12-18T15:24:49;51.47;;;25.77;;
6987;SDS011;3534;49.960;8.018;2022-12-18T15:27:28;54.70;;;26.00;;